sensor_id;sensor_type;location;lat;lon;timestamp;P1;durP1;ratioP1;P2;durP2;ratioP2
69783;SDS011;57054;51.978;4.498;2023-04-25T00:02:24;6.68;;;2.47;;
69783;SDS011;57054;51.978;4.498;2023-04-25T00:04:50;4.22;;;2.10;;
69783;SDS011;57054;51.978;4.498;2023-04-25T00:07:15;8.15;;;2.35;;
69783;SDS011;57054;51.978;4.498;2023-04-25T00:09:41;3.85;;;2.10;;
69783;SDS011;57054;51.978;4.498;2023-04-25T00:12:07;8.13;;;2.15;;
69783;SDS011;57054;51.978;4.498;2023-04-25T00:14:33;9.35;;;2.63;;
69783;SDS011;57054;51.978;4.498;2023-04-25T00:16:59;7.00;;;1.95;;
69783;SDS011;57054;51.978;4.498;2023-04-25T00:19:25;3.80;;;2.00;;
69783;SDS011;57054;51.978;4.498;2023-04-25T00:21:53;3.97;;;2.00;;
69783;SDS011;57054;51.978;4.498;2023-04-25T00:24:21;4.82;;;1.83;;
69783;SDS011;57054;51.978;4.498;2023-04-25T00:26:47;4.75;;;1.90;;
69783;SDS011;57054;51.978;4.498;2023-04-25T00:29:12;3.97;;;1.67;;
69783;SDS011;57054;51.978;4.498;2023-04-25T00:31:38;4.95;;;1.63;;
69783;SDS011;57054;51.978;4.498;2023-04-25T00:34:03;4.55;;;1.73;;
69783;SDS011;57054;51.978;4.498;2023-04-25T00:36:28;7.80;;;1.80;;
69783;SDS011;57054;51.978;4.498;2023-04-25T00:38:54;3.17;;;1.30;;
69783;SDS011;57054;51.978;4.498;2023-04-25T00:41:20;4.68;;;1.60;;
69783;SDS011;57054;51.978;4.498;2023-04-25T00:43:46;5.78;;;1.60;;
69783;SDS011;57054;51.978;4.498;2023-04-25T00:46:13;3.75;;;1.52;;
69783;SDS011;57054;51.978;4.498;2023-04-25T00:48:38;4.07;;;1.52;;
69783;SDS011;57054;51.978;4.498;2023-04-25T00:51:04;1.95;;;1.23;;
69783;SDS011;57054;51.978;4.498;2023-04-25T00:53:29;3.60;;;1.63;;
69783;SDS011;57054;51.978;4.498;2023-04-25T00:55:57;2.45;;;1.50;;
69783;SDS011;57054;51.978;4.498;2023-04-25T00:58:22;1.85;;;1.30;;
69783;SDS011;57054;51.978;4.498;2023-04-25T01:04:10;3.80;;;1.60;;
69783;SDS011;57054;51.978;4.498;2023-04-25T01:06:36;2.65;;;1.35;;
69783;SDS011;57054;51.978;4.498;2023-04-25T01:09:01;2.83;;;1.60;;
69783;SDS011;57054;51.978;4.498;2023-04-25T01:11:27;3.25;;;1.50;;
69783;SDS011;57054;51.978;4.498;2023-04-25T01:13:52;3.25;;;1.58;;
69783;SDS011;57054;51.978;4.498;2023-04-25T01:16:17;1.77;;;1.38;;
69783;SDS011;57054;51.978;4.498;2023-04-25T01:18:43;3.08;;;1.58;;
69783;SDS011;57054;51.978;4.498;2023-04-25T01:21:11;3.20;;;1.35;;
69783;SDS011;57054;51.978;4.498;2023-04-25T01:26:06;2.03;;;1.25;;
69783;SDS011;57054;51.978;4.498;2023-04-25T01:28:33;1.88;;;1.50;;
69783;SDS011;57054;51.978;4.498;2023-04-25T01:30:59;2.75;;;1.30;;
69783;SDS011;57054;51.978;4.498;2023-04-25T01:33:25;2.65;;;1.65;;
69783;SDS011;57054;51.978;4.498;2023-04-25T01:35:50;4.63;;;2.53;;
69783;SDS011;57054;51.978;4.498;2023-04-25T01:38:16;3.72;;;1.67;;
69783;SDS011;57054;51.978;4.498;2023-04-25T01:40:41;2.25;;;1.77;;
69783;SDS011;57054;51.978;4.498;2023-04-25T01:43:09;7.57;;;1.83;;
69783;SDS011;57054;51.978;4.498;2023-04-25T01:45:37;3.75;;;1.92;;
69783;SDS011;57054;51.978;4.498;2023-04-25T01:48:06;3.17;;;1.88;;
69783;SDS011;57054;51.978;4.498;2023-04-25T01:50:34;2.97;;;1.80;;
69783;SDS011;57054;51.978;4.498;2023-04-25T01:53:00;2.00;;;1.60;;
69783;SDS011;57054;51.978;4.498;2023-04-25T01:55:26;2.90;;;1.73;;
69783;SDS011;57054;51.978;4.498;2023-04-25T01:57:52;3.72;;;1.30;;
69783;SDS011;57054;51.978;4.498;2023-04-25T02:00:17;4.57;;;1.58;;
69783;SDS011;57054;51.978;4.498;2023-04-25T02:02:43;2.60;;;1.35;;
69783;SDS011;57054;51.978;4.498;2023-04-25T02:05:08;3.28;;;1.50;;
69783;SDS011;57054;51.978;4.498;2023-04-25T02:07:34;2.72;;;1.30;;
69783;SDS011;57054;51.978;4.498;2023-04-25T02:09:59;1.50;;;1.40;;
69783;SDS011;57054;51.978;4.498;2023-04-25T02:12:25;1.92;;;1.40;;
69783;SDS011;57054;51.978;4.498;2023-04-25T02:14:51;1.80;;;1.33;;
69783;SDS011;57054;51.978;4.498;2023-04-25T02:17:16;2.50;;;1.23;;
69783;SDS011;57054;51.978;4.498;2023-04-25T02:19:42;2.28;;;1.42;;
69783;SDS011;57054;51.978;4.498;2023-04-25T02:22:08;1.88;;;1.30;;
69783;SDS011;57054;51.978;4.498;2023-04-25T02:24:33;2.17;;;1.50;;
69783;SDS011;57054;51.978;4.498;2023-04-25T02:26:59;10.00;;;2.05;;
69783;SDS011;57054;51.978;4.498;2023-04-25T02:29:25;6.45;;;2.20;;
69783;SDS011;57054;51.978;4.498;2023-04-25T02:31:50;5.63;;;1.55;;
69783;SDS011;57054;51.978;4.498;2023-04-25T02:34:16;3.15;;;1.50;;
69783;SDS011;57054;51.978;4.498;2023-04-25T02:36:41;2.75;;;1.38;;
69783;SDS011;57054;51.978;4.498;2023-04-25T02:39:06;3.53;;;1.38;;
69783;SDS011;57054;51.978;4.498;2023-04-25T02:41:32;1.40;;;1.30;;
69783;SDS011;57054;51.978;4.498;2023-04-25T02:43:57;1.38;;;1.10;;
69783;SDS011;57054;51.978;4.498;2023-04-25T02:46:22;3.75;;;1.60;;
69783;SDS011;57054;51.978;4.498;2023-04-25T02:48:48;3.08;;;1.40;;
69783;SDS011;57054;51.978;4.498;2023-04-25T02:51:13;5.07;;;1.40;;
69783;SDS011;57054;51.978;4.498;2023-04-25T02:53:41;1.45;;;1.35;;
69783;SDS011;57054;51.978;4.498;2023-04-25T02:56:06;3.15;;;1.20;;
69783;SDS011;57054;51.978;4.498;2023-04-25T02:58:32;3.63;;;1.20;;
69783;SDS011;57054;51.978;4.498;2023-04-25T03:00:57;2.20;;;1.23;;
69783;SDS011;57054;51.978;4.498;2023-04-25T03:03:22;1.75;;;1.10;;
69783;SDS011;57054;51.978;4.498;2023-04-25T03:05:48;2.80;;;1.13;;
69783;SDS011;57054;51.978;4.498;2023-04-25T03:08:15;2.22;;;1.30;;
69783;SDS011;57054;51.978;4.498;2023-04-25T03:10:41;3.63;;;1.50;;
69783;SDS011;57054;51.978;4.498;2023-04-25T03:13:07;6.25;;;1.50;;
69783;SDS011;57054;51.978;4.498;2023-04-25T03:15:32;3.70;;;1.33;;
69783;SDS011;57054;51.978;4.498;2023-04-25T03:17:58;4.72;;;1.70;;
69783;SDS011;57054;51.978;4.498;2023-04-25T03:20:23;3.60;;;1.23;;
69783;SDS011;57054;51.978;4.498;2023-04-25T03:22:48;3.33;;;1.40;;
69783;SDS011;57054;51.978;4.498;2023-04-25T03:25:14;1.98;;;1.10;;
69783;SDS011;57054;51.978;4.498;2023-04-25T03:27:39;2.95;;;1.42;;
69783;SDS011;57054;51.978;4.498;2023-04-25T03:30:05;1.38;;;1.10;;
69783;SDS011;57054;51.978;4.498;2023-04-25T03:32:31;6.40;;;1.35;;
69783;SDS011;57054;51.978;4.498;2023-04-25T03:34:57;3.25;;;1.20;;
69783;SDS011;57054;51.978;4.498;2023-04-25T03:37:22;5.38;;;1.27;;
69783;SDS011;57054;51.978;4.498;2023-04-25T03:39:47;1.35;;;1.02;;
69783;SDS011;57054;51.978;4.498;2023-04-25T03:42:13;2.60;;;1.20;;
69783;SDS011;57054;51.978;4.498;2023-04-25T03:44:38;2.22;;;1.20;;
69783;SDS011;57054;51.978;4.498;2023-04-25T03:47:03;2.45;;;1.40;;
69783;SDS011;57054;51.978;4.498;2023-04-25T03:49:29;2.58;;;1.40;;
69783;SDS011;57054;51.978;4.498;2023-04-25T03:51:54;1.10;;;0.95;;
69783;SDS011;57054;51.978;4.498;2023-04-25T03:54:20;3.92;;;1.38;;
69783;SDS011;57054;51.978;4.498;2023-04-25T03:56:45;4.25;;;1.38;;
69783;SDS011;57054;51.978;4.498;2023-04-25T03:59:11;3.20;;;1.23;;
69783;SDS011;57054;51.978;4.498;2023-04-25T04:01:36;2.60;;;1.50;;
69783;SDS011;57054;51.978;4.498;2023-04-25T04:04:02;3.78;;;1.17;;
69783;SDS011;57054;51.978;4.498;2023-04-25T04:06:27;3.42;;;1.17;;
69783;SDS011;57054;51.978;4.498;2023-04-25T04:08:53;7.13;;;1.40;;
69783;SDS011;57054;51.978;4.498;2023-04-25T04:11:19;4.85;;;1.33;;
69783;SDS011;57054;51.978;4.498;2023-04-25T04:13:45;3.67;;;1.52;;
69783;SDS011;57054;51.978;4.498;2023-04-25T04:16:10;4.38;;;1.48;;
69783;SDS011;57054;51.978;4.498;2023-04-25T04:18:36;4.80;;;1.33;;
69783;SDS011;57054;51.978;4.498;2023-04-25T04:21:02;1.60;;;0.98;;
69783;SDS011;57054;51.978;4.498;2023-04-25T04:23:27;2.45;;;0.90;;
69783;SDS011;57054;51.978;4.498;2023-04-25T04:25:53;0.95;;;0.90;;
69783;SDS011;57054;51.978;4.498;2023-04-25T04:28:19;2.75;;;1.05;;
69783;SDS011;57054;51.978;4.498;2023-04-25T04:30:45;3.80;;;1.20;;
69783;SDS011;57054;51.978;4.498;2023-04-25T04:33:11;6.18;;;1.60;;
69783;SDS011;57054;51.978;4.498;2023-04-25T04:35:37;4.15;;;2.08;;
69783;SDS011;57054;51.978;4.498;2023-04-25T04:38:02;2.38;;;1.17;;
69783;SDS011;57054;51.978;4.498;2023-04-25T04:40:28;1.42;;;0.75;;
69783;SDS011;57054;51.978;4.498;2023-04-25T04:42:55;2.20;;;1.10;;
69783;SDS011;57054;51.978;4.498;2023-04-25T04:45:22;1.33;;;0.88;;
69783;SDS011;57054;51.978;4.498;2023-04-25T04:47:48;4.05;;;1.23;;
69783;SDS011;57054;51.978;4.498;2023-04-25T04:50:14;3.65;;;1.05;;
69783;SDS011;57054;51.978;4.498;2023-04-25T04:52:41;1.23;;;0.90;;
69783;SDS011;57054;51.978;4.498;2023-04-25T04:55:06;2.50;;;1.35;;
69783;SDS011;57054;51.978;4.498;2023-04-25T04:57:33;4.03;;;1.05;;
69783;SDS011;57054;51.978;4.498;2023-04-25T04:59:59;8.55;;;2.03;;
69783;SDS011;57054;51.978;4.498;2023-04-25T05:02:25;8.07;;;1.60;;
69783;SDS011;57054;51.978;4.498;2023-04-25T05:04:51;7.65;;;1.50;;
69783;SDS011;57054;51.978;4.498;2023-04-25T05:07:17;11.18;;;2.67;;
69783;SDS011;57054;51.978;4.498;2023-04-25T05:09:43;8.13;;;1.90;;
69783;SDS011;57054;51.978;4.498;2023-04-25T05:12:09;6.95;;;1.98;;
69783;SDS011;57054;51.978;4.498;2023-04-25T05:14:35;3.92;;;1.55;;
69783;SDS011;57054;51.978;4.498;2023-04-25T05:17:00;4.75;;;1.48;;
69783;SDS011;57054;51.978;4.498;2023-04-25T05:19:25;3.97;;;1.27;;
69783;SDS011;57054;51.978;4.498;2023-04-25T05:21:51;6.55;;;1.50;;
69783;SDS011;57054;51.978;4.498;2023-04-25T05:24:17;7.05;;;1.75;;
69783;SDS011;57054;51.978;4.498;2023-04-25T05:26:42;5.18;;;1.63;;
69783;SDS011;57054;51.978;4.498;2023-04-25T05:29:07;3.38;;;1.60;;
69783;SDS011;57054;51.978;4.498;2023-04-25T05:31:33;6.05;;;1.52;;
69783;SDS011;57054;51.978;4.498;2023-04-25T05:33:58;13.18;;;1.85;;
69783;SDS011;57054;51.978;4.498;2023-04-25T05:36:24;7.28;;;1.92;;
69783;SDS011;57054;51.978;4.498;2023-04-25T05:38:50;15.57;;;2.08;;
69783;SDS011;57054;51.978;4.498;2023-04-25T05:41:16;4.03;;;1.30;;
69783;SDS011;57054;51.978;4.498;2023-04-25T05:43:41;4.65;;;1.30;;
69783;SDS011;57054;51.978;4.498;2023-04-25T05:46:11;4.38;;;1.15;;
69783;SDS011;57054;51.978;4.498;2023-04-25T05:48:37;3.60;;;1.10;;
69783;SDS011;57054;51.978;4.498;2023-04-25T05:51:03;5.25;;;1.17;;
69783;SDS011;57054;51.978;4.498;2023-04-25T05:53:28;3.38;;;0.95;;
69783;SDS011;57054;51.978;4.498;2023-04-25T05:55:53;8.00;;;1.58;;
69783;SDS011;57054;51.978;4.498;2023-04-25T05:58:19;4.28;;;1.20;;
69783;SDS011;57054;51.978;4.498;2023-04-25T06:00:45;5.43;;;1.20;;
69783;SDS011;57054;51.978;4.498;2023-04-25T06:03:11;9.15;;;1.13;;
69783;SDS011;57054;51.978;4.498;2023-04-25T06:05:38;4.93;;;1.10;;
69783;SDS011;57054;51.978;4.498;2023-04-25T06:08:03;3.00;;;1.15;;
69783;SDS011;57054;51.978;4.498;2023-04-25T06:10:29;3.17;;;0.77;;
69783;SDS011;57054;51.978;4.498;2023-04-25T06:12:55;4.32;;;1.05;;
69783;SDS011;57054;51.978;4.498;2023-04-25T06:15:20;1.45;;;0.60;;
69783;SDS011;57054;51.978;4.498;2023-04-25T06:17:45;3.30;;;1.13;;
69783;SDS011;57054;51.978;4.498;2023-04-25T06:20:11;1.55;;;1.00;;
69783;SDS011;57054;51.978;4.498;2023-04-25T06:22:36;2.85;;;1.27;;
69783;SDS011;57054;51.978;4.498;2023-04-25T06:25:02;1.95;;;0.93;;
69783;SDS011;57054;51.978;4.498;2023-04-25T06:27:29;3.10;;;0.90;;
69783;SDS011;57054;51.978;4.498;2023-04-25T06:29:54;1.85;;;0.80;;
69783;SDS011;57054;51.978;4.498;2023-04-25T06:32:20;3.90;;;1.00;;
69783;SDS011;57054;51.978;4.498;2023-04-25T06:34:45;5.75;;;0.90;;
69783;SDS011;57054;51.978;4.498;2023-04-25T06:37:11;1.73;;;0.77;;
69783;SDS011;57054;51.978;4.498;2023-04-25T06:39:36;3.28;;;0.90;;
69783;SDS011;57054;51.978;4.498;2023-04-25T06:42:02;3.67;;;1.20;;
69783;SDS011;57054;51.978;4.498;2023-04-25T06:44:27;3.10;;;0.98;;
69783;SDS011;57054;51.978;4.498;2023-04-25T06:46:54;2.85;;;0.98;;
69783;SDS011;57054;51.978;4.498;2023-04-25T06:49:19;2.17;;;1.13;;
69783;SDS011;57054;51.978;4.498;2023-04-25T06:51:45;1.60;;;0.90;;
69783;SDS011;57054;51.978;4.498;2023-04-25T06:54:10;2.50;;;1.00;;
69783;SDS011;57054;51.978;4.498;2023-04-25T06:56:35;1.77;;;1.00;;
69783;SDS011;57054;51.978;4.498;2023-04-25T06:59:01;2.38;;;1.02;;
69783;SDS011;57054;51.978;4.498;2023-04-25T07:01:26;1.48;;;0.90;;
69783;SDS011;57054;51.978;4.498;2023-04-25T07:03:52;0.65;;;0.60;;
69783;SDS011;57054;51.978;4.498;2023-04-25T07:06:17;0.75;;;0.75;;
69783;SDS011;57054;51.978;4.498;2023-04-25T07:08:42;2.33;;;0.82;;
69783;SDS011;57054;51.978;4.498;2023-04-25T07:11:08;1.13;;;0.80;;
69783;SDS011;57054;51.978;4.498;2023-04-25T07:13:33;3.63;;;1.10;;
69783;SDS011;57054;51.978;4.498;2023-04-25T07:15:59;2.55;;;1.10;;
69783;SDS011;57054;51.978;4.498;2023-04-25T07:18:24;3.22;;;1.23;;
69783;SDS011;57054;51.978;4.498;2023-04-25T07:20:50;3.45;;;1.30;;
69783;SDS011;57054;51.978;4.498;2023-04-25T07:23:15;2.05;;;1.10;;
69783;SDS011;57054;51.978;4.498;2023-04-25T07:25:40;3.50;;;1.38;;
69783;SDS011;57054;51.978;4.498;2023-04-25T07:28:06;4.35;;;1.15;;
69783;SDS011;57054;51.978;4.498;2023-04-25T07:30:31;4.20;;;0.98;;
69783;SDS011;57054;51.978;4.498;2023-04-25T07:32:57;6.03;;;1.10;;
69783;SDS011;57054;51.978;4.498;2023-04-25T07:35:22;4.05;;;1.02;;
69783;SDS011;57054;51.978;4.498;2023-04-25T07:37:47;1.52;;;0.90;;
69783;SDS011;57054;51.978;4.498;2023-04-25T07:40:13;2.47;;;0.98;;
69783;SDS011;57054;51.978;4.498;2023-04-25T07:42:40;5.03;;;1.15;;
69783;SDS011;57054;51.978;4.498;2023-04-25T07:45:06;8.75;;;1.10;;
69783;SDS011;57054;51.978;4.498;2023-04-25T07:47:32;7.63;;;1.50;;
69783;SDS011;57054;51.978;4.498;2023-04-25T07:49:57;4.18;;;1.20;;
69783;SDS011;57054;51.978;4.498;2023-04-25T07:52:23;5.72;;;0.75;;
69783;SDS011;57054;51.978;4.498;2023-04-25T07:54:48;7.80;;;1.08;;
69783;SDS011;57054;51.978;4.498;2023-04-25T07:57:14;2.95;;;0.88;;
69783;SDS011;57054;51.978;4.498;2023-04-25T07:59:39;8.88;;;1.27;;
69783;SDS011;57054;51.978;4.498;2023-04-25T08:02:05;3.78;;;1.08;;
69783;SDS011;57054;51.978;4.498;2023-04-25T08:04:30;7.18;;;1.70;;
69783;SDS011;57054;51.978;4.498;2023-04-25T08:06:56;8.82;;;1.60;;
69783;SDS011;57054;51.978;4.498;2023-04-25T08:09:21;5.25;;;0.85;;
69783;SDS011;57054;51.978;4.498;2023-04-25T08:11:47;4.97;;;0.77;;
69783;SDS011;57054;51.978;4.498;2023-04-25T08:14:13;3.30;;;0.93;;
69783;SDS011;57054;51.978;4.498;2023-04-25T08:16:39;2.22;;;0.68;;
69783;SDS011;57054;51.978;4.498;2023-04-25T08:19:04;6.47;;;1.30;;
69783;SDS011;57054;51.978;4.498;2023-04-25T08:21:30;4.47;;;1.00;;
69783;SDS011;57054;51.978;4.498;2023-04-25T08:23:56;8.35;;;1.33;;
69783;SDS011;57054;51.978;4.498;2023-04-25T08:26:23;4.70;;;0.93;;
69783;SDS011;57054;51.978;4.498;2023-04-25T08:28:48;10.48;;;1.00;;
69783;SDS011;57054;51.978;4.498;2023-04-25T08:31:14;6.30;;;1.08;;
69783;SDS011;57054;51.978;4.498;2023-04-25T08:33:40;6.43;;;1.02;;
69783;SDS011;57054;51.978;4.498;2023-04-25T08:36:05;8.07;;;1.27;;
69783;SDS011;57054;51.978;4.498;2023-04-25T08:38:31;4.00;;;0.73;;
69783;SDS011;57054;51.978;4.498;2023-04-25T08:40:56;9.48;;;1.33;;
69783;SDS011;57054;51.978;4.498;2023-04-25T08:43:22;5.93;;;0.80;;
69783;SDS011;57054;51.978;4.498;2023-04-25T08:45:48;6.85;;;1.23;;
69783;SDS011;57054;51.978;4.498;2023-04-25T08:48:14;11.52;;;1.85;;
69783;SDS011;57054;51.978;4.498;2023-04-25T08:50:45;8.52;;;1.60;;
69783;SDS011;57054;51.978;4.498;2023-04-25T08:53:22;8.55;;;1.35;;
69783;SDS011;57054;51.978;4.498;2023-04-25T08:55:50;5.18;;;1.40;;
69783;SDS011;57054;51.978;4.498;2023-04-25T08:58:18;5.63;;;1.20;;
69783;SDS011;57054;51.978;4.498;2023-04-25T09:00:48;6.05;;;1.00;;
69783;SDS011;57054;51.978;4.498;2023-04-25T09:03:15;5.10;;;0.80;;
69783;SDS011;57054;51.978;4.498;2023-04-25T09:05:41;3.60;;;0.82;;
69783;SDS011;57054;51.978;4.498;2023-04-25T09:08:07;3.83;;;0.90;;
69783;SDS011;57054;51.978;4.498;2023-04-25T09:10:32;2.33;;;0.82;;
69783;SDS011;57054;51.978;4.498;2023-04-25T09:13:03;9.23;;;1.08;;
69783;SDS011;57054;51.978;4.498;2023-04-25T09:15:33;4.45;;;0.88;;
69783;SDS011;57054;51.978;4.498;2023-04-25T09:18:12;4.07;;;0.85;;
69783;SDS011;57054;51.978;4.498;2023-04-25T09:20:43;2.42;;;0.63;;
69783;SDS011;57054;51.978;4.498;2023-04-25T09:23:09;3.03;;;0.70;;
69783;SDS011;57054;51.978;4.498;2023-04-25T09:25:35;6.38;;;1.02;;
69783;SDS011;57054;51.978;4.498;2023-04-25T09:28:04;5.07;;;0.93;;
69783;SDS011;57054;51.978;4.498;2023-04-25T09:30:32;2.00;;;0.80;;
69783;SDS011;57054;51.978;4.498;2023-04-25T09:33:09;1.65;;;0.70;;
69783;SDS011;57054;51.978;4.498;2023-04-25T09:35:40;4.63;;;0.80;;
69783;SDS011;57054;51.978;4.498;2023-04-25T09:38:16;3.10;;;0.93;;
69783;SDS011;57054;51.978;4.498;2023-04-25T09:40:43;5.10;;;0.88;;
69783;SDS011;57054;51.978;4.498;2023-04-25T09:43:10;2.58;;;0.60;;
69783;SDS011;57054;51.978;4.498;2023-04-25T09:45:45;5.00;;;1.15;;
69783;SDS011;57054;51.978;4.498;2023-04-25T09:48:11;5.40;;;1.10;;
69783;SDS011;57054;51.978;4.498;2023-04-25T09:50:39;7.20;;;0.85;;
69783;SDS011;57054;51.978;4.498;2023-04-25T09:53:05;2.60;;;0.90;;
69783;SDS011;57054;51.978;4.498;2023-04-25T09:55:31;7.40;;;1.10;;
69783;SDS011;57054;51.978;4.498;2023-04-25T09:57:59;4.65;;;1.10;;
69783;SDS011;57054;51.978;4.498;2023-04-25T10:00:31;6.13;;;0.73;;
69783;SDS011;57054;51.978;4.498;2023-04-25T10:02:58;10.30;;;1.33;;
69783;SDS011;57054;51.978;4.498;2023-04-25T10:05:32;3.80;;;0.93;;
69783;SDS011;57054;51.978;4.498;2023-04-25T10:08:01;4.63;;;1.05;;
69783;SDS011;57054;51.978;4.498;2023-04-25T10:10:28;3.63;;;1.00;;
69783;SDS011;57054;51.978;4.498;2023-04-25T10:12:57;7.15;;;1.20;;
69783;SDS011;57054;51.978;4.498;2023-04-25T10:15:24;4.78;;;0.82;;
69783;SDS011;57054;51.978;4.498;2023-04-25T10:17:50;6.22;;;1.15;;
69783;SDS011;57054;51.978;4.498;2023-04-25T10:20:15;4.55;;;1.05;;
69783;SDS011;57054;51.978;4.498;2023-04-25T10:22:41;4.70;;;1.00;;
69783;SDS011;57054;51.978;4.498;2023-04-25T10:25:09;1.92;;;0.82;;
69783;SDS011;57054;51.978;4.498;2023-04-25T10:27:35;7.35;;;1.08;;
69783;SDS011;57054;51.978;4.498;2023-04-25T10:30:01;5.60;;;1.67;;
69783;SDS011;57054;51.978;4.498;2023-04-25T10:32:33;3.90;;;0.88;;
69783;SDS011;57054;51.978;4.498;2023-04-25T10:37:59;5.68;;;1.17;;
69783;SDS011;57054;51.978;4.498;2023-04-25T10:40:25;5.72;;;1.00;;
69783;SDS011;57054;51.978;4.498;2023-04-25T10:42:52;6.97;;;1.20;;
69783;SDS011;57054;51.978;4.498;2023-04-25T10:45:19;7.68;;;1.23;;
69783;SDS011;57054;51.978;4.498;2023-04-25T10:47:45;2.88;;;0.82;;
69783;SDS011;57054;51.978;4.498;2023-04-25T10:50:10;6.63;;;1.15;;
69783;SDS011;57054;51.978;4.498;2023-04-25T10:52:38;8.02;;;1.17;;
69783;SDS011;57054;51.978;4.498;2023-04-25T10:55:04;9.90;;;1.27;;
69783;SDS011;57054;51.978;4.498;2023-04-25T10:57:31;4.80;;;0.75;;
69783;SDS011;57054;51.978;4.498;2023-04-25T11:02:45;4.95;;;0.70;;
69783;SDS011;57054;51.978;4.498;2023-04-25T11:05:36;4.45;;;0.90;;
69783;SDS011;57054;51.978;4.498;2023-04-25T11:08:06;5.72;;;0.77;;
69783;SDS011;57054;51.978;4.498;2023-04-25T11:10:36;8.27;;;1.45;;
69783;SDS011;57054;51.978;4.498;2023-04-25T11:13:02;5.40;;;1.02;;
69783;SDS011;57054;51.978;4.498;2023-04-25T11:15:28;6.80;;;1.10;;
69783;SDS011;57054;51.978;4.498;2023-04-25T11:17:54;2.13;;;1.00;;
69783;SDS011;57054;51.978;4.498;2023-04-25T11:20:20;5.20;;;1.33;;
69783;SDS011;57054;51.978;4.498;2023-04-25T11:22:46;4.30;;;1.10;;
69783;SDS011;57054;51.978;4.498;2023-04-25T11:25:12;4.72;;;1.10;;
69783;SDS011;57054;51.978;4.498;2023-04-25T11:27:49;3.85;;;1.13;;
69783;SDS011;57054;51.978;4.498;2023-04-25T11:30:16;5.60;;;1.17;;
69783;SDS011;57054;51.978;4.498;2023-04-25T11:32:42;4.03;;;0.80;;
69783;SDS011;57054;51.978;4.498;2023-04-25T11:35:08;3.45;;;1.00;;
69783;SDS011;57054;51.978;4.498;2023-04-25T11:37:34;1.08;;;0.45;;
69783;SDS011;57054;51.978;4.498;2023-04-25T11:40:00;6.80;;;1.05;;
69783;SDS011;57054;51.978;4.498;2023-04-25T11:42:26;2.45;;;0.98;;
69783;SDS011;57054;51.978;4.498;2023-04-25T11:44:51;7.38;;;1.20;;
69783;SDS011;57054;51.978;4.498;2023-04-25T11:47:17;3.85;;;1.05;;
69783;SDS011;57054;51.978;4.498;2023-04-25T11:49:42;4.57;;;0.95;;
69783;SDS011;57054;51.978;4.498;2023-04-25T11:52:07;9.63;;;1.42;;
69783;SDS011;57054;51.978;4.498;2023-04-25T11:54:36;10.43;;;1.30;;
69783;SDS011;57054;51.978;4.498;2023-04-25T11:59:28;5.97;;;1.20;;
69783;SDS011;57054;51.978;4.498;2023-04-25T12:01:53;2.97;;;0.80;;
69783;SDS011;57054;51.978;4.498;2023-04-25T12:04:23;4.72;;;1.25;;
69783;SDS011;57054;51.978;4.498;2023-04-25T12:06:50;6.28;;;0.98;;
69783;SDS011;57054;51.978;4.498;2023-04-25T12:09:21;3.92;;;0.90;;
69783;SDS011;57054;51.978;4.498;2023-04-25T12:11:54;7.43;;;1.00;;
69783;SDS011;57054;51.978;4.498;2023-04-25T12:14:45;3.47;;;0.95;;
69783;SDS011;57054;51.978;4.498;2023-04-25T12:17:12;5.47;;;1.17;;
69783;SDS011;57054;51.978;4.498;2023-04-25T12:19:38;4.15;;;1.20;;
69783;SDS011;57054;51.978;4.498;2023-04-25T12:22:21;3.38;;;0.65;;
69783;SDS011;57054;51.978;4.498;2023-04-25T12:24:48;5.53;;;0.95;;
69783;SDS011;57054;51.978;4.498;2023-04-25T12:27:14;6.80;;;1.45;;
69783;SDS011;57054;51.978;4.498;2023-04-25T12:29:49;6.47;;;1.23;;
69783;SDS011;57054;51.978;4.498;2023-04-25T12:32:18;5.57;;;0.80;;
69783;SDS011;57054;51.978;4.498;2023-04-25T12:34:44;4.57;;;0.82;;
69783;SDS011;57054;51.978;4.498;2023-04-25T12:37:10;9.40;;;1.95;;
69783;SDS011;57054;51.978;4.498;2023-04-25T12:39:35;4.60;;;1.00;;
69783;SDS011;57054;51.978;4.498;2023-04-25T12:42:00;4.78;;;1.10;;
69783;SDS011;57054;51.978;4.498;2023-04-25T12:44:26;3.60;;;1.27;;
69783;SDS011;57054;51.978;4.498;2023-04-25T12:46:51;5.05;;;1.20;;
69783;SDS011;57054;51.978;4.498;2023-04-25T12:49:17;5.82;;;1.15;;
69783;SDS011;57054;51.978;4.498;2023-04-25T12:51:43;3.53;;;0.90;;
69783;SDS011;57054;51.978;4.498;2023-04-25T12:54:08;4.35;;;0.95;;
69783;SDS011;57054;51.978;4.498;2023-04-25T12:56:34;3.90;;;1.20;;
69783;SDS011;57054;51.978;4.498;2023-04-25T12:59:00;3.75;;;0.93;;
69783;SDS011;57054;51.978;4.498;2023-04-25T13:01:28;3.13;;;0.95;;
69783;SDS011;57054;51.978;4.498;2023-04-25T13:03:54;3.60;;;1.10;;
69783;SDS011;57054;51.978;4.498;2023-04-25T13:06:19;6.03;;;1.33;;
69783;SDS011;57054;51.978;4.498;2023-04-25T13:08:45;5.25;;;1.40;;
69783;SDS011;57054;51.978;4.498;2023-04-25T13:11:11;7.03;;;1.25;;
69783;SDS011;57054;51.978;4.498;2023-04-25T13:13:37;8.32;;;1.23;;
69783;SDS011;57054;51.978;4.498;2023-04-25T13:16:03;2.22;;;0.98;;
69783;SDS011;57054;51.978;4.498;2023-04-25T13:18:32;7.07;;;1.40;;
69783;SDS011;57054;51.978;4.498;2023-04-25T13:20:58;5.45;;;1.10;;
69783;SDS011;57054;51.978;4.498;2023-04-25T13:23:28;4.32;;;1.17;;
69783;SDS011;57054;51.978;4.498;2023-04-25T13:25:55;4.95;;;1.20;;
69783;SDS011;57054;51.978;4.498;2023-04-25T13:28:22;7.65;;;1.42;;
69783;SDS011;57054;51.978;4.498;2023-04-25T13:30:48;8.00;;;1.30;;
69783;SDS011;57054;51.978;4.498;2023-04-25T13:33:14;4.25;;;1.00;;
69783;SDS011;57054;51.978;4.498;2023-04-25T13:35:40;2.45;;;0.95;;
69783;SDS011;57054;51.978;4.498;2023-04-25T13:38:06;6.57;;;1.00;;
69783;SDS011;57054;51.978;4.498;2023-04-25T13:40:31;8.00;;;1.63;;
69783;SDS011;57054;51.978;4.498;2023-04-25T13:42:57;3.17;;;1.40;;
69783;SDS011;57054;51.978;4.498;2023-04-25T13:45:23;5.35;;;1.60;;
69783;SDS011;57054;51.978;4.498;2023-04-25T13:47:48;5.55;;;1.10;;
69783;SDS011;57054;51.978;4.498;2023-04-25T13:50:14;5.72;;;1.20;;
69783;SDS011;57054;51.978;4.498;2023-04-25T13:52:40;7.50;;;1.50;;
69783;SDS011;57054;51.978;4.498;2023-04-25T13:55:06;4.75;;;1.20;;
69783;SDS011;57054;51.978;4.498;2023-04-25T13:57:33;12.57;;;1.58;;
69783;SDS011;57054;51.978;4.498;2023-04-25T13:59:59;3.08;;;0.90;;
69783;SDS011;57054;51.978;4.498;2023-04-25T14:02:29;7.45;;;1.48;;
69783;SDS011;57054;51.978;4.498;2023-04-25T14:04:55;4.78;;;0.82;;
69783;SDS011;57054;51.978;4.498;2023-04-25T14:07:20;5.43;;;1.38;;
69783;SDS011;57054;51.978;4.498;2023-04-25T14:09:46;5.63;;;1.27;;
69783;SDS011;57054;51.978;4.498;2023-04-25T14:12:11;6.43;;;1.23;;
69783;SDS011;57054;51.978;4.498;2023-04-25T14:14:37;4.60;;;1.20;;
69783;SDS011;57054;51.978;4.498;2023-04-25T14:17:02;3.78;;;0.80;;
69783;SDS011;57054;51.978;4.498;2023-04-25T14:19:28;7.55;;;1.15;;
69783;SDS011;57054;51.978;4.498;2023-04-25T14:21:54;1.65;;;0.77;;
69783;SDS011;57054;51.978;4.498;2023-04-25T14:24:20;4.22;;;1.35;;
69783;SDS011;57054;51.978;4.498;2023-04-25T14:26:45;5.70;;;1.23;;
69783;SDS011;57054;51.978;4.498;2023-04-25T14:29:11;6.10;;;1.15;;
69783;SDS011;57054;51.978;4.498;2023-04-25T14:31:39;4.13;;;1.02;;
69783;SDS011;57054;51.978;4.498;2023-04-25T14:34:06;5.40;;;1.00;;
69783;SDS011;57054;51.978;4.498;2023-04-25T14:36:32;3.05;;;1.33;;
69783;SDS011;57054;51.978;4.498;2023-04-25T14:38:58;3.28;;;0.73;;
69783;SDS011;57054;51.978;4.498;2023-04-25T14:41:24;1.48;;;0.70;;
69783;SDS011;57054;51.978;4.498;2023-04-25T14:43:50;6.47;;;1.23;;
69783;SDS011;57054;51.978;4.498;2023-04-25T14:46:16;7.03;;;1.13;;
69783;SDS011;57054;51.978;4.498;2023-04-25T14:48:42;3.08;;;1.00;;
69783;SDS011;57054;51.978;4.498;2023-04-25T14:51:07;3.05;;;1.10;;
69783;SDS011;57054;51.978;4.498;2023-04-25T14:53:33;7.72;;;1.00;;
69783;SDS011;57054;51.978;4.498;2023-04-25T14:55:58;4.95;;;1.10;;
69783;SDS011;57054;51.978;4.498;2023-04-25T14:58:23;1.30;;;1.13;;